sensor_id;sensor_type;location;lat;lon;timestamp;pressure;altitude;pressure_sealevel;temperature;humidity
12775;BME280;6451;42.630;23.382;2022-09-14T00:01:19;94371.16;;;11.74;100.00
12775;BME280;6451;42.630;23.382;2022-09-14T00:03:50;94364.50;;;11.87;100.00
12775;BME280;6451;42.630;23.382;2022-09-14T00:06:17;94356.69;;;11.86;100.00
12775;BME280;6451;42.630;23.382;2022-09-14T00:08:43;94353.13;;;11.82;100.00
12775;BME280;6451;42.630;23.382;2022-09-14T00:11:13;94365.13;;;11.81;100.00
12775;BME280;6451;42.630;23.382;2022-09-14T00:13:42;94365.22;;;11.84;100.00
12775;BME280;6451;42.630;23.382;2022-09-14T00:16:13;94366.78;;;11.85;100.00
12775;BME280;6451;42.630;23.382;2022-09-14T00:18:42;94374.56;;;11.71;100.00
12775;BME280;6451;42.630;23.382;2022-09-14T00:21:10;94373.88;;;11.74;100.00
12775;BME280;6451;42.630;23.382;2022-09-14T00:23:38;94380.28;;;11.66;100.00
12775;BME280;6451;42.630;23.382;2022-09-14T00:26:08;94379.03;;;11.63;100.00
12775;BME280;6451;42.630;23.382;2022-09-14T00:28:39;94359.34;;;11.66;100.00
12775;BME280;6451;42.630;23.382;2022-09-14T00:31:06;94364.00;;;11.82;100.00
12775;BME280;6451;42.630;23.382;2022-09-14T00:33:33;94362.84;;;11.83;100.00
12775;BME280;6451;42.630;23.382;2022-09-14T00:36:06;94354.13;;;11.77;100.00
12775;BME280;6451;42.630;23.382;2022-09-14T00:38:34;94367.00;;;11.96;100.00
12775;BME280;6451;42.630;23.382;2022-09-14T00:41:03;94356.31;;;12.03;100.00
12775;BME280;6451;42.630;23.382;2022-09-14T00:43:31;94344.06;;;11.78;100.00
12775;BME280;6451;42.630;23.382;2022-09-14T00:45:59;94352.94;;;11.75;100.00
12775;BME280;6451;42.630;23.382;2022-09-14T00:48:28;94366.06;;;11.88;100.00
12775;BME280;6451;42.630;23.382;2022-09-14T00:50:57;94374.06;;;11.97;100.00
12775;BME280;6451;42.630;23.382;2022-09-14T00:53:25;94377.91;;;11.96;100.00
12775;BME280;6451;42.630;23.382;2022-09-14T00:55:52;94382.53;;;11.95;100.00
12775;BME280;6451;42.630;23.382;2022-09-14T00:58:20;94380.97;;;11.94;100.00
12775;BME280;6451;42.630;23.382;2022-09-14T01:00:47;94371.25;;;11.93;100.00
12775;BME280;6451;42.630;23.382;2022-09-14T01:03:14;94383.25;;;11.92;100.00
12775;BME280;6451;42.630;23.382;2022-09-14T01:05:49;94352.13;;;11.74;100.00
12775;BME280;6451;42.630;23.382;2022-09-14T01:08:36;94386.78;;;11.93;100.00
12775;BME280;6451;42.630;23.382;2022-09-14T01:11:19;94370.28;;;11.70;100.00
12775;BME280;6451;42.630;23.382;2022-09-14T01:13:55;94382.53;;;11.80;100.00
12775;BME280;6451;42.630;23.382;2022-09-14T01:16:31;94356.63;;;11.66;100.00
12775;BME280;6451;42.630;23.382;2022-09-14T01:19:03;94390.09;;;11.86;100.00
12775;BME280;6451;42.630;23.382;2022-09-14T01:21:33;94348.09;;;11.68;100.00
12775;BME280;6451;42.630;23.382;2022-09-14T01:24:06;94360.91;;;11.83;100.00
12775;BME280;6451;42.630;23.382;2022-09-14T01:27:12;94378.63;;;11.93;100.00
12775;BME280;6451;42.630;23.382;2022-09-14T01:29:42;94374.38;;;11.95;100.00
12775;BME280;6451;42.630;23.382;2022-09-14T01:32:14;94356.44;;;11.91;100.00
12775;BME280;6451;42.630;23.382;2022-09-14T01:34:45;94297.19;;;11.49;100.00
12775;BME280;6451;42.630;23.382;2022-09-14T01:37:18;94369.41;;;11.98;100.00
12775;BME280;6451;42.630;23.382;2022-09-14T01:39:49;94375.88;;;12.09;100.00
12775;BME280;6451;42.630;23.382;2022-09-14T01:42:20;94352.38;;;12.01;100.00
12775;BME280;6451;42.630;23.382;2022-09-14T01:44:52;94376.38;;;12.14;100.00
12775;BME280;6451;42.630;23.382;2022-09-14T01:47:29;94354.72;;;12.02;100.00
12775;BME280;6451;42.630;23.382;2022-09-14T01:50:05;94368.22;;;12.14;100.00
12775;BME280;6451;42.630;23.382;2022-09-14T01:52:37;94377.53;;;12.13;100.00
12775;BME280;6451;42.630;23.382;2022-09-14T01:55:09;94378.50;;;12.05;100.00
12775;BME280;6451;42.630;23.382;2022-09-14T01:57:42;94388.69;;;11.92;100.00
12775;BME280;6451;42.630;23.382;2022-09-14T02:00:13;94336.03;;;11.65;100.00
12775;BME280;6451;42.630;23.382;2022-09-14T02:02:45;94369.94;;;11.87;100.00
12775;BME280;6451;42.630;23.382;2022-09-14T02:05:17;94350.81;;;11.68;100.00
12775;BME280;6451;42.630;23.382;2022-09-14T02:07:46;94375.81;;;11.89;100.00
12775;BME280;6451;42.630;23.382;2022-09-14T02:10:14;94374.69;;;11.90;100.00
12775;BME280;6451;42.630;23.382;2022-09-14T02:12:44;94362.75;;;11.63;100.00
12775;BME280;6451;42.630;23.382;2022-09-14T02:15:14;94345.41;;;11.52;100.00
12775;BME280;6451;42.630;23.382;2022-09-14T02:17:41;94381.06;;;11.66;100.00
12775;BME280;6451;42.630;23.382;2022-09-14T02:20:14;94326.91;;;11.58;100.00
12775;BME280;6451;42.630;23.382;2022-09-14T02:22:44;94349.09;;;11.60;100.00
12775;BME280;6451;42.630;23.382;2022-09-14T02:25:11;94361.78;;;11.72;100.00
12775;BME280;6451;42.630;23.382;2022-09-14T02:27:38;94342.31;;;11.54;100.00
12775;BME280;6451;42.630;23.382;2022-09-14T02:30:08;94370.22;;;11.66;100.00
12775;BME280;6451;42.630;23.382;2022-09-14T02:32:41;94349.69;;;11.53;100.00
12775;BME280;6451;42.630;23.382;2022-09-14T02:35:15;94363.09;;;11.62;100.00
12775;BME280;6451;42.630;23.382;2022-09-14T02:37:49;94357.31;;;11.63;100.00
12775;BME280;6451;42.630;23.382;2022-09-14T02:40:24;94365.28;;;11.56;100.00
12775;BME280;6451;42.630;23.382;2022-09-14T02:43:01;94355.13;;;11.53;100.00
12775;BME280;6451;42.630;23.382;2022-09-14T02:45:38;94317.88;;;11.22;100.00
12775;BME280;6451;42.630;23.382;2022-09-14T02:48:12;94198.91;;;10.33;100.00
12775;BME280;6451;42.630;23.382;2022-09-14T02:50:46;94376.88;;;11.53;100.00
12775;BME280;6451;42.630;23.382;2022-09-14T02:53:20;94370.81;;;11.44;100.00
12775;BME280;6451;42.630;23.382;2022-09-14T02:55:52;94385.81;;;11.54;100.00
12775;BME280;6451;42.630;23.382;2022-09-14T02:58:21;94384.91;;;11.50;100.00
12775;BME280;6451;42.630;23.382;2022-09-14T03:00:49;94384.22;;;11.53;100.00
12775;BME280;6451;42.630;23.382;2022-09-14T03:03:19;94378.38;;;11.51;100.00
12775;BME280;6451;42.630;23.382;2022-09-14T03:05:46;94370.22;;;11.35;100.00
12775;BME280;6451;42.630;23.382;2022-09-14T03:08:13;94375.72;;;11.38;100.00
12775;BME280;6451;42.630;23.382;2022-09-14T03:10:42;94386.16;;;11.52;100.00
12775;BME280;6451;42.630;23.382;2022-09-14T03:13:10;94370.13;;;11.47;100.00
12775;BME280;6451;42.630;23.382;2022-09-14T03:15:39;94373.53;;;11.44;100.00
12775;BME280;6451;42.630;23.382;2022-09-14T03:18:08;94385.97;;;11.61;100.00
12775;BME280;6451;42.630;23.382;2022-09-14T03:20:35;94386.16;;;11.68;100.00
12775;BME280;6451;42.630;23.382;2022-09-14T03:23:03;94372.94;;;11.51;100.00
12775;BME280;6451;42.630;23.382;2022-09-14T03:25:35;94391.94;;;11.66;100.00
12775;BME280;6451;42.630;23.382;2022-09-14T03:28:02;94375.97;;;11.49;100.00
12775;BME280;6451;42.630;23.382;2022-09-14T03:30:30;94378.97;;;11.76;100.00
12775;BME280;6451;42.630;23.382;2022-09-14T03:32:57;94386.69;;;11.74;100.00
12775;BME280;6451;42.630;23.382;2022-09-14T03:35:26;94393.25;;;11.73;100.00
12775;BME280;6451;42.630;23.382;2022-09-14T03:37:55;94391.00;;;11.59;100.00
12775;BME280;6451;42.630;23.382;2022-09-14T03:40:22;94387.91;;;11.45;100.00
12775;BME280;6451;42.630;23.382;2022-09-14T03:42:50;94385.28;;;11.48;100.00
12775;BME280;6451;42.630;23.382;2022-09-14T03:45:18;94306.91;;;11.03;100.00
12775;BME280;6451;42.630;23.382;2022-09-14T03:47:45;94371.06;;;11.39;100.00
12775;BME280;6451;42.630;23.382;2022-09-14T03:50:14;94386.25;;;11.56;100.00
12775;BME280;6451;42.630;23.382;2022-09-14T03:52:42;94383.53;;;11.40;100.00
12775;BME280;6451;42.630;23.382;2022-09-14T03:55:09;94360.03;;;11.32;100.00
12775;BME280;6451;42.630;23.382;2022-09-14T03:57:37;94389.31;;;11.38;100.00
12775;BME280;6451;42.630;23.382;2022-09-14T04:00:05;94395.69;;;11.30;100.00
12775;BME280;6451;42.630;23.382;2022-09-14T04:02:33;94390.28;;;11.30;100.00
12775;BME280;6451;42.630;23.382;2022-09-14T04:05:00;94391.41;;;11.29;100.00
12775;BME280;6451;42.630;23.382;2022-09-14T04:07:27;94379.81;;;11.17;100.00
12775;BME280;6451;42.630;23.382;2022-09-14T04:09:55;94397.19;;;11.28;100.00
12775;BME280;6451;42.630;23.382;2022-09-14T04:12:23;94391.06;;;11.31;100.00
12775;BME280;6451;42.630;23.382;2022-09-14T04:14:50;94384.66;;;11.23;100.00
12775;BME280;6451;42.630;23.382;2022-09-14T04:17:17;94385.25;;;11.17;100.00
12775;BME280;6451;42.630;23.382;2022-09-14T04:19:44;94380.53;;;11.29;100.00
12775;BME280;6451;42.630;23.382;2022-09-14T04:22:11;94370.53;;;11.33;100.00
12775;BME280;6451;42.630;23.382;2022-09-14T04:24:38;94393.16;;;11.53;100.00
12775;BME280;6451;42.630;23.382;2022-09-14T04:27:07;94384.13;;;11.65;100.00
12775;BME280;6451;42.630;23.382;2022-09-14T04:29:33;94375.81;;;11.74;100.00
12775;BME280;6451;42.630;23.382;2022-09-14T04:32:01;94348.53;;;11.54;100.00
12775;BME280;6451;42.630;23.382;2022-09-14T04:34:28;94331.19;;;11.59;100.00
12775;BME280;6451;42.630;23.382;2022-09-14T04:36:55;94365.44;;;11.79;100.00
12775;BME280;6451;42.630;23.382;2022-09-14T04:39:22;94380.00;;;12.03;100.00
12775;BME280;6451;42.630;23.382;2022-09-14T04:41:49;94358.53;;;11.98;100.00
12775;BME280;6451;42.630;23.382;2022-09-14T04:44:18;94390.78;;;12.15;100.00
12775;BME280;6451;42.630;23.382;2022-09-14T04:46:45;94386.13;;;12.15;100.00
12775;BME280;6451;42.630;23.382;2022-09-14T04:49:13;94398.16;;;12.34;100.00
12775;BME280;6451;42.630;23.382;2022-09-14T04:51:41;94390.63;;;12.43;100.00
12775;BME280;6451;42.630;23.382;2022-09-14T04:54:11;94390.25;;;12.44;100.00
12775;BME280;6451;42.630;23.382;2022-09-14T04:56:39;94376.44;;;12.53;100.00
12775;BME280;6451;42.630;23.382;2022-09-14T04:59:07;94370.97;;;12.72;100.00
12775;BME280;6451;42.630;23.382;2022-09-14T05:01:37;94395.34;;;13.04;100.00
12775;BME280;6451;42.630;23.382;2022-09-14T05:04:05;94397.94;;;12.77;100.00
12775;BME280;6451;42.630;23.382;2022-09-14T05:06:34;94398.63;;;12.94;100.00
12775;BME280;6451;42.630;23.382;2022-09-14T05:09:04;94404.59;;;12.99;100.00
12775;BME280;6451;42.630;23.382;2022-09-14T05:11:34;94417.66;;;13.29;100.00
12775;BME280;6451;42.630;23.382;2022-09-14T05:14:02;94416.44;;;13.49;100.00
12775;BME280;6451;42.630;23.382;2022-09-14T05:16:31;94394.59;;;13.46;100.00
12775;BME280;6451;42.630;23.382;2022-09-14T05:19:00;94394.63;;;13.49;100.00
12775;BME280;6451;42.630;23.382;2022-09-14T05:21:29;94407.44;;;13.45;100.00
12775;BME280;6451;42.630;23.382;2022-09-14T05:23:57;94374.84;;;13.29;100.00
12775;BME280;6451;42.630;23.382;2022-09-14T05:26:26;94399.41;;;13.33;100.00
12775;BME280;6451;42.630;23.382;2022-09-14T05:28:55;94414.41;;;13.43;100.00
12775;BME280;6451;42.630;23.382;2022-09-14T05:31:23;94419.97;;;13.50;100.00
12775;BME280;6451;42.630;23.382;2022-09-14T05:33:51;94420.31;;;13.48;100.00
12775;BME280;6451;42.630;23.382;2022-09-14T05:36:20;94414.41;;;13.43;100.00
12775;BME280;6451;42.630;23.382;2022-09-14T05:38:46;94419.25;;;13.53;100.00
12775;BME280;6451;42.630;23.382;2022-09-14T05:41:15;94402.38;;;13.24;100.00
12775;BME280;6451;42.630;23.382;2022-09-14T05:43:42;94431.06;;;13.60;100.00
12775;BME280;6451;42.630;23.382;2022-09-14T05:46:11;94411.59;;;13.39;100.00
12775;BME280;6451;42.630;23.382;2022-09-14T05:48:39;94424.16;;;13.67;100.00
12775;BME280;6451;42.630;23.382;2022-09-14T05:51:09;94379.38;;;13.45;100.00
12775;BME280;6451;42.630;23.382;2022-09-14T05:53:38;94365.75;;;13.45;100.00
12775;BME280;6451;42.630;23.382;2022-09-14T05:56:07;94445.19;;;13.89;100.00
12775;BME280;6451;42.630;23.382;2022-09-14T05:58:35;94435.22;;;14.00;100.00
12775;BME280;6451;42.630;23.382;2022-09-14T06:01:12;94446.38;;;14.14;100.00
12775;BME280;6451;42.630;23.382;2022-09-14T06:03:40;94421.84;;;13.91;100.00
12775;BME280;6451;42.630;23.382;2022-09-14T06:06:10;94415.34;;;14.00;100.00
12775;BME280;6451;42.630;23.382;2022-09-14T06:08:38;94452.63;;;14.41;100.00
12775;BME280;6451;42.630;23.382;2022-09-14T06:11:08;94438.78;;;14.27;100.00
12775;BME280;6451;42.630;23.382;2022-09-14T06:13:40;94447.84;;;14.58;100.00
12775;BME280;6451;42.630;23.382;2022-09-14T06:16:11;94437.72;;;14.88;100.00
12775;BME280;6451;42.630;23.382;2022-09-14T06:18:40;94444.75;;;14.89;100.00
12775;BME280;6451;42.630;23.382;2022-09-14T06:21:09;94444.31;;;15.17;100.00
12775;BME280;6451;42.630;23.382;2022-09-14T06:23:36;94418.75;;;15.02;100.00
12775;BME280;6451;42.630;23.382;2022-09-14T06:26:05;94441.75;;;15.32;100.00
12775;BME280;6451;42.630;23.382;2022-09-14T06:28:33;94424.97;;;15.33;100.00
12775;BME280;6451;42.630;23.382;2022-09-14T06:31:01;94433.31;;;15.47;100.00
12775;BME280;6451;42.630;23.382;2022-09-14T06:33:29;94423.22;;;15.51;100.00
12775;BME280;6451;42.630;23.382;2022-09-14T06:35:57;94421.38;;;15.63;100.00
12775;BME280;6451;42.630;23.382;2022-09-14T06:38:25;94423.41;;;15.69;100.00
12775;BME280;6451;42.630;23.382;2022-09-14T06:40:52;94427.38;;;15.38;100.00
12775;BME280;6451;42.630;23.382;2022-09-14T06:43:22;94418.69;;;15.29;100.00
12775;BME280;6451;42.630;23.382;2022-09-14T06:45:57;94416.25;;;15.57;100.00
12775;BME280;6451;42.630;23.382;2022-09-14T06:48:24;94432.38;;;15.66;100.00
12775;BME280;6451;42.630;23.382;2022-09-14T06:50:51;94421.91;;;15.75;100.00
12775;BME280;6451;42.630;23.382;2022-09-14T06:53:19;94420.81;;;15.87;100.00
12775;BME280;6451;42.630;23.382;2022-09-14T06:55:46;94428.81;;;16.06;100.00
12775;BME280;6451;42.630;23.382;2022-09-14T06:58:13;94411.88;;;15.90;100.00
12775;BME280;6451;42.630;23.382;2022-09-14T07:00:41;94424.78;;;15.90;100.00
12775;BME280;6451;42.630;23.382;2022-09-14T07:03:08;94441.28;;;16.00;100.00
12775;BME280;6451;42.630;23.382;2022-09-14T07:05:35;94441.72;;;16.06;100.00
12775;BME280;6451;42.630;23.382;2022-09-14T07:08:02;94433.44;;;15.95;100.00
12775;BME280;6451;42.630;23.382;2022-09-14T07:10:30;94427.78;;;16.22;100.00
12775;BME280;6451;42.630;23.382;2022-09-14T07:12:58;94429.06;;;16.35;100.00
12775;BME280;6451;42.630;23.382;2022-09-14T07:15:26;94427.94;;;16.43;100.00
12775;BME280;6451;42.630;23.382;2022-09-14T07:17:54;94427.09;;;16.39;100.00
12775;BME280;6451;42.630;23.382;2022-09-14T07:20:21;94428.69;;;16.40;100.00
12775;BME280;6451;42.630;23.382;2022-09-14T07:22:47;94428.31;;;16.42;100.00
12775;BME280;6451;42.630;23.382;2022-09-14T07:25:14;94398.94;;;16.35;100.00
12775;BME280;6451;42.630;23.382;2022-09-14T07:27:41;94425.41;;;16.79;100.00
12775;BME280;6451;42.630;23.382;2022-09-14T07:30:09;94417.22;;;16.86;100.00
12775;BME280;6451;42.630;23.382;2022-09-14T07:32:37;94423.56;;;16.97;100.00
12775;BME280;6451;42.630;23.382;2022-09-14T07:35:05;94417.34;;;17.07;100.00
12775;BME280;6451;42.630;23.382;2022-09-14T07:37:32;94415.03;;;17.16;100.00
12775;BME280;6451;42.630;23.382;2022-09-14T07:39:59;94418.09;;;17.01;100.00
12775;BME280;6451;42.630;23.382;2022-09-14T07:42:27;94412.63;;;17.08;100.00
12775;BME280;6451;42.630;23.382;2022-09-14T07:44:54;94423.28;;;17.20;100.00
12775;BME280;6451;42.630;23.382;2022-09-14T07:47:21;94424.50;;;17.37;100.00
12775;BME280;6451;42.630;23.382;2022-09-14T07:49:48;94411.59;;;17.55;100.00
12775;BME280;6451;42.630;23.382;2022-09-14T07:52:16;94401.00;;;17.43;100.00
12775;BME280;6451;42.630;23.382;2022-09-14T07:54:43;94415.09;;;17.38;100.00
12775;BME280;6451;42.630;23.382;2022-09-14T07:57:10;94414.75;;;17.54;100.00
12775;BME280;6451;42.630;23.382;2022-09-14T07:59:37;94411.25;;;17.64;100.00
12775;BME280;6451;42.630;23.382;2022-09-14T08:02:05;94407.41;;;17.90;100.00
12775;BME280;6451;42.630;23.382;2022-09-14T08:04:33;94416.44;;;18.19;100.00
12775;BME280;6451;42.630;23.382;2022-09-14T08:07:00;94419.94;;;18.23;100.00
12775;BME280;6451;42.630;23.382;2022-09-14T08:09:28;94421.88;;;17.76;100.00
12775;BME280;6451;42.630;23.382;2022-09-14T08:11:58;94423.06;;;17.86;100.00
12775;BME280;6451;42.630;23.382;2022-09-14T08:14:25;94408.94;;;17.84;100.00
12775;BME280;6451;42.630;23.382;2022-09-14T08:16:52;94415.63;;;18.08;100.00
12775;BME280;6451;42.630;23.382;2022-09-14T08:19:19;94424.25;;;17.92;100.00
12775;BME280;6451;42.630;23.382;2022-09-14T08:21:46;94394.47;;;18.19;100.00
12775;BME280;6451;42.630;23.382;2022-09-14T08:24:15;94412.06;;;18.53;100.00
12775;BME280;6451;42.630;23.382;2022-09-14T08:26:44;94393.63;;;18.47;100.00
12775;BME280;6451;42.630;23.382;2022-09-14T08:29:11;94380.66;;;18.58;100.00
12775;BME280;6451;42.630;23.382;2022-09-14T08:31:39;94400.66;;;18.80;100.00
12775;BME280;6451;42.630;23.382;2022-09-14T08:34:07;94401.09;;;18.71;100.00
12775;BME280;6451;42.630;23.382;2022-09-14T08:36:36;94406.50;;;18.93;100.00
12775;BME280;6451;42.630;23.382;2022-09-14T08:39:03;94403.72;;;19.07;100.00
12775;BME280;6451;42.630;23.382;2022-09-14T08:41:36;94345.31;;;18.74;100.00
12775;BME280;6451;42.630;23.382;2022-09-14T08:44:21;94398.19;;;19.14;100.00
12775;BME280;6451;42.630;23.382;2022-09-14T08:46:53;94406.03;;;19.19;100.00
12775;BME280;6451;42.630;23.382;2022-09-14T08:49:30;94406.44;;;19.14;100.00
12775;BME280;6451;42.630;23.382;2022-09-14T08:52:01;94395.34;;;19.32;100.00
12775;BME280;6451;42.630;23.382;2022-09-14T08:54:27;94394.50;;;19.49;100.00
12775;BME280;6451;42.630;23.382;2022-09-14T08:57:11;94397.19;;;19.60;100.00
12775;BME280;6451;42.630;23.382;2022-09-14T08:59:50;94399.59;;;19.51;100.00
12775;BME280;6451;42.630;23.382;2022-09-14T09:02:29;94350.47;;;19.45;100.00
12775;BME280;6451;42.630;23.382;2022-09-14T09:05:12;94396.22;;;19.91;100.00
12775;BME280;6451;42.630;23.382;2022-09-14T09:07:47;94382.44;;;19.91;98.96
12775;BME280;6451;42.630;23.382;2022-09-14T09:10:18;94377.28;;;19.93;100.00
12775;BME280;6451;42.630;23.382;2022-09-14T09:12:48;94384.66;;;20.11;100.00
12775;BME280;6451;42.630;23.382;2022-09-14T09:15:20;94378.69;;;20.16;100.00
12775;BME280;6451;42.630;23.382;2022-09-14T09:17:52;94363.41;;;20.08;98.19
12775;BME280;6451;42.630;23.382;2022-09-14T09:20:22;94381.28;;;20.37;98.62
12775;BME280;6451;42.630;23.382;2022-09-14T09:23:02;94379.00;;;20.28;96.63
12775;BME280;6451;42.630;23.382;2022-09-14T09:25:44;94371.75;;;20.49;94.65
12775;BME280;6451;42.630;23.382;2022-09-14T09:28:15;94383.44;;;20.60;92.30
12775;BME280;6451;42.630;23.382;2022-09-14T09:30:44;94377.13;;;20.63;91.42
12775;BME280;6451;42.630;23.382;2022-09-14T09:33:15;94371.16;;;20.68;91.43
12775;BME280;6451;42.630;23.382;2022-09-14T09:35:42;94356.00;;;20.87;89.10
12775;BME280;6451;42.630;23.382;2022-09-14T09:38:13;94364.41;;;21.07;88.52
12775;BME280;6451;42.630;23.382;2022-09-14T09:40:43;94372.75;;;21.03;87.97
12775;BME280;6451;42.630;23.382;2022-09-14T09:43:13;94357.75;;;21.04;87.67
12775;BME280;6451;42.630;23.382;2022-09-14T09:46:03;94380.22;;;21.37;85.18
12775;BME280;6451;42.630;23.382;2022-09-14T09:48:32;94375.22;;;21.28;84.09
12775;BME280;6451;42.630;23.382;2022-09-14T09:51:09;94369.69;;;21.28;82.69
12775;BME280;6451;42.630;23.382;2022-09-14T09:53:46;94352.34;;;21.28;82.70
12775;BME280;6451;42.630;23.382;2022-09-14T09:56:19;94361.84;;;21.54;81.91
12775;BME280;6451;42.630;23.382;2022-09-14T09:58:47;94356.88;;;21.72;82.41
12775;BME280;6451;42.630;23.382;2022-09-14T10:01:25;94352.03;;;21.80;81.73
12775;BME280;6451;42.630;23.382;2022-09-14T10:04:05;94361.56;;;21.75;78.66
12775;BME280;6451;42.630;23.382;2022-09-14T10:06:40;94356.66;;;21.86;78.17
12775;BME280;6451;42.630;23.382;2022-09-14T10:09:13;94321.69;;;21.76;77.76
12775;BME280;6451;42.630;23.382;2022-09-14T10:11:42;94332.59;;;21.87;80.00
12775;BME280;6451;42.630;23.382;2022-09-14T10:14:22;94360.69;;;22.09;79.73
12775;BME280;6451;42.630;23.382;2022-09-14T10:16:51;94347.81;;;22.22;77.35
12775;BME280;6451;42.630;23.382;2022-09-14T10:19:21;94336.09;;;22.14;76.49
12775;BME280;6451;42.630;23.382;2022-09-14T10:22:06;94325.47;;;22.36;75.61
12775;BME280;6451;42.630;23.382;2022-09-14T10:24:51;94324.63;;;22.39;73.01
12775;BME280;6451;42.630;23.382;2022-09-14T10:27:36;94308.81;;;22.40;74.29
12775;BME280;6451;42.630;23.382;2022-09-14T10:30:08;94336.44;;;22.63;75.58
12775;BME280;6451;42.630;23.382;2022-09-14T10:32:39;94326.72;;;22.55;74.22
12775;BME280;6451;42.630;23.382;2022-09-14T10:35:14;94322.47;;;22.70;73.63
12775;BME280;6451;42.630;23.382;2022-09-14T10:37:48;94297.63;;;22.47;73.16
12775;BME280;6451;42.630;23.382;2022-09-14T10:40:30;94328.13;;;22.87;73.43
12775;BME280;6451;42.630;23.382;2022-09-14T10:43:08;94298.81;;;22.89;71.29
12775;BME280;6451;42.630;23.382;2022-09-14T10:45:40;94312.06;;;23.18;70.32
12775;BME280;6451;42.630;23.382;2022-09-14T10:48:41;94326.19;;;23.23;66.68
12775;BME280;6451;42.630;23.382;2022-09-14T10:51:31;94315.59;;;23.18;62.21
12775;BME280;6451;42.630;23.382;2022-09-14T10:54:11;94325.94;;;23.34;61.56
12775;BME280;6451;42.630;23.382;2022-09-14T10:56:51;94319.47;;;23.41;60.78
12775;BME280;6451;42.630;23.382;2022-09-14T10:59:30;94314.47;;;23.52;60.09
12775;BME280;6451;42.630;23.382;2022-09-14T11:02:22;94309.28;;;23.54;59.61
12775;BME280;6451;42.630;23.382;2022-09-14T11:05:06;94304.84;;;23.40;62.54
12775;BME280;6451;42.630;23.382;2022-09-14T11:07:40;94309.09;;;23.45;61.90
12775;BME280;6451;42.630;23.382;2022-09-14T11:10:18;94303.31;;;23.55;60.13
12775;BME280;6451;42.630;23.382;2022-09-14T11:12:57;94295.56;;;23.67;59.12
12775;BME280;6451;42.630;23.382;2022-09-14T11:15:36;94201.59;;;23.23;58.92
12775;BME280;6451;42.630;23.382;2022-09-14T11:18:17;94305.47;;;24.17;56.20
12775;BME280;6451;42.630;23.382;2022-09-14T11:20:59;94292.19;;;24.24;54.87
12775;BME280;6451;42.630;23.382;2022-09-14T11:23:38;94296.44;;;24.12;53.83
12775;BME280;6451;42.630;23.382;2022-09-14T11:26:10;94305.28;;;24.24;54.09
12775;BME280;6451;42.630;23.382;2022-09-14T11:28:41;94278.25;;;24.11;54.18
12775;BME280;6451;42.630;23.382;2022-09-14T11:31:12;94254.44;;;23.98;54.24
12775;BME280;6451;42.630;23.382;2022-09-14T11:33:46;94260.13;;;24.07;53.49
12775;BME280;6451;42.630;23.382;2022-09-14T11:36:18;94263.50;;;24.14;53.34
12775;BME280;6451;42.630;23.382;2022-09-14T11:38:50;94287.25;;;24.48;53.50
12775;BME280;6451;42.630;23.382;2022-09-14T11:41:23;94276.97;;;24.61;53.47
12775;BME280;6451;42.630;23.382;2022-09-14T11:43:55;94275.38;;;24.77;52.79
12775;BME280;6451;42.630;23.382;2022-09-14T11:46:26;94262.09;;;24.68;52.96
12775;BME280;6451;42.630;23.382;2022-09-14T11:49:03;94253.94;;;24.48;52.79
12775;BME280;6451;42.630;23.382;2022-09-14T11:51:38;94261.19;;;24.58;53.30
12775;BME280;6451;42.630;23.382;2022-09-14T11:54:11;94264.28;;;24.77;51.78
12775;BME280;6451;42.630;23.382;2022-09-14T11:56:41;94228.16;;;24.64;49.62
12775;BME280;6451;42.630;23.382;2022-09-14T11:59:33;94266.78;;;24.71;48.30
12775;BME280;6451;42.630;23.382;2022-09-14T12:05:25;94264.41;;;24.99;44.14
12775;BME280;6451;42.630;23.382;2022-09-14T12:08:03;94265.69;;;25.10;44.43
12775;BME280;6451;42.630;23.382;2022-09-14T12:11:00;94258.19;;;25.23;44.45
12775;BME280;6451;42.630;23.382;2022-09-14T12:13:29;94259.16;;;25.30;43.97
12775;BME280;6451;42.630;23.382;2022-09-14T12:16:04;94243.94;;;25.34;43.13
12775;BME280;6451;42.630;23.382;2022-09-14T12:18:31;94247.53;;;25.47;42.69
12775;BME280;6451;42.630;23.382;2022-09-14T12:21:03;94255.41;;;25.62;43.08
12775;BME280;6451;42.630;23.382;2022-09-14T12:23:44;94240.19;;;25.54;42.93
12775;BME280;6451;42.630;23.382;2022-09-14T12:26:27;94254.72;;;25.32;43.07
12775;BME280;6451;42.630;23.382;2022-09-14T12:29:01;94255.63;;;25.55;42.86
12775;BME280;6451;42.630;23.382;2022-09-14T12:31:37;94236.59;;;25.53;42.46
12775;BME280;6451;42.630;23.382;2022-09-14T12:34:15;94253.50;;;25.59;42.08
12775;BME280;6451;42.630;23.382;2022-09-14T12:37:00;94250.19;;;25.64;41.93
12775;BME280;6451;42.630;23.382;2022-09-14T12:39:31;94251.19;;;25.83;42.37
12775;BME280;6451;42.630;23.382;2022-09-14T12:44:45;94236.31;;;25.76;42.46
12775;BME280;6451;42.630;23.382;2022-09-14T12:50:27;94232.91;;;26.07;42.10
12775;BME280;6451;42.630;23.382;2022-09-14T12:53:14;94217.59;;;25.90;41.78
12775;BME280;6451;42.630;23.382;2022-09-14T12:56:04;94236.03;;;25.96;42.52
12775;BME280;6451;42.630;23.382;2022-09-14T12:58:49;94253.09;;;26.20;42.41
12775;BME280;6451;42.630;23.382;2022-09-14T13:01:30;94252.75;;;26.31;42.50
12775;BME280;6451;42.630;23.382;2022-09-14T13:04:01;94257.75;;;26.36;42.18
12775;BME280;6451;42.630;23.382;2022-09-14T13:06:33;94248.91;;;26.16;42.32
12775;BME280;6451;42.630;23.382;2022-09-14T13:09:01;94252.66;;;26.22;43.04
12775;BME280;6451;42.630;23.382;2022-09-14T13:11:34;94246.97;;;26.38;42.93
12775;BME280;6451;42.630;23.382;2022-09-14T13:14:03;94242.06;;;26.42;43.03
12775;BME280;6451;42.630;23.382;2022-09-14T13:16:37;94255.72;;;26.49;43.42
12775;BME280;6451;42.630;23.382;2022-09-14T13:19:18;94262.44;;;26.26;43.57
12775;BME280;6451;42.630;23.382;2022-09-14T13:21:46;94249.75;;;26.38;43.56
12775;BME280;6451;42.630;23.382;2022-09-14T13:24:26;94243.53;;;26.21;44.20